TimeCDT,TemperatureF,Dew PointF,Humidity,Sea Level PressureIn,VisibilityMPH,Wind Direction,Wind SpeedMPH,Gust SpeedMPH,PrecipitationIn,Events,Conditions,WindDirDegrees,DateUTC
12:15 AM,29.1,22.3,76,30.06,10.0,Calm,Calm,-,N/A,,Clear,0,2013-03-23 05:15:00
12:35 AM,28.4,22.3,78,30.05,10.0,Calm,Calm,-,N/A,,Clear,0,2013-03-23 05:35:00
12:55 AM,27.7,21.9,79,30.05,10.0,Calm,Calm,-,N/A,,Clear,0,2013-03-23 05:55:00
1:15 AM,28.4,22.6,79,30.05,10.0,Calm,Calm,-,N/A,,Clear,0,2013-03-23 06:15:00
1:35 AM,25.9,21.2,82,30.06,10.0,Calm,Calm,-,N/A,,Clear,0,2013-03-23 06:35:00
1:55 AM,24.1,21.2,89,30.06,10.0,Calm,Calm,-,N/A,,Clear,0,2013-03-23 06:55:00
2:15 AM,25.5,23.0,90,30.06,10.0,Calm,Calm,-,N/A,,Clear,0,2013-03-23 07:15:00
2:35 AM,24.8,22.5,91,30.07,10.0,Calm,Calm,-,N/A,,Mostly Cloudy,0,2013-03-23 07:35:00
2:55 AM,24.8,23.0,93,30.07,10.0,Calm,Calm,-,N/A,,Overcast,0,2013-03-23 07:55:00
3:15 AM,25.5,23.2,91,30.06,10.0,Calm,Calm,-,N/A,,Overcast,0,2013-03-23 08:15:00
3:35 AM,26.4,22.8,86,30.06,10.0,Calm,Calm,-,N/A,,Mostly Cloudy,0,2013-03-23 08:35:00
3:55 AM,25.7,22.8,89,30.06,10.0,Calm,Calm,-,N/A,,Scattered Clouds,0,2013-03-23 08:55:00
4:15 AM,24.1,21.7,91,30.05,10.0,Calm,Calm,-,N/A,,Scattered Clouds,0,2013-03-23 09:15:00
4:35 AM,24.6,21.7,89,30.06,10.0,Calm,Calm,-,N/A,,Scattered Clouds,0,2013-03-23 09:35:00
4:55 AM,25.2,22.8,91,30.06,10.0,Calm,Calm,-,N/A,,Scattered Clouds,0,2013-03-23 09:55:00
5:15 AM,25.3,22.8,90,30.06,10.0,Calm,Calm,-,N/A,,Clear,0,2013-03-23 10:15:00
5:35 AM,25.7,22.8,89,30.05,10.0,Calm,Calm,-,N/A,,Clear,0,2013-03-23 10:35:00
5:55 AM,26.6,23.0,86,30.06,10.0,Calm,Calm,-,N/A,,Clear,0,2013-03-23 10:55:00
6:15 AM,25.9,23.0,89,30.08,10.0,Calm,Calm,-,N/A,,Scattered Clouds,0,2013-03-23 11:15:00
6:35 AM,24.8,22.5,91,30.08,10.0,Calm,Calm,-,N/A,,Scattered Clouds,0,2013-03-23 11:35:00
6:55 AM,24.8,22.6,91,30.09,10.0,Calm,Calm,-,N/A,,Overcast,0,2013-03-23 11:55:00
7:15 AM,26.6,23.5,88,30.09,10.0,Calm,Calm,-,N/A,,Overcast,0,2013-03-23 12:15:00
7:35 AM,27.0,23.2,86,30.09,10.0,Calm,Calm,-,N/A,,Overcast,0,2013-03-23 12:35:00
7:55 AM,28.4,24.8,86,30.10,10.0,Calm,Calm,-,N/A,,Mostly Cloudy,0,2013-03-23 12:55:00
8:15 AM,28.8,23.9,82,30.09,10.0,Calm,Calm,-,N/A,,Scattered Clouds,0,2013-03-23 13:15:00
8:35 AM,29.8,23.2,76,30.09,10.0,Calm,Calm,-,N/A,,Scattered Clouds,0,2013-03-23 13:35:00
8:55 AM,31.5,23.7,73,30.10,10.0,Calm,Calm,-,N/A,,Scattered Clouds,0,2013-03-23 13:55:00
9:15 AM,32.0,24.3,73,30.12,10.0,Calm,Calm,-,N/A,,Mostly Cloudy,0,2013-03-23 14:15:00
9:35 AM,32.7,24.3,71,30.13,10.0,Calm,Calm,-,N/A,,Overcast,0,2013-03-23 14:35:00
9:55 AM,32.9,23.7,69,30.13,10.0,Calm,Calm,-,N/A,,Overcast,0,2013-03-23 14:55:00
10:15 AM,33.3,22.5,65,30.13,10.0,Calm,Calm,-,N/A,,Overcast,0,2013-03-23 15:15:00
10:35 AM,33.6,22.1,63,30.12,10.0,NW,3.5,-,N/A,,Overcast,320,2013-03-23 15:35:00
10:55 AM,35.2,21.7,58,30.12,10.0,Calm,Calm,-,N/A,,Scattered Clouds,0,2013-03-23 15:55:00
11:15 AM,37.2,22.1,54,30.12,10.0,North,3.5,-,N/A,,Scattered Clouds,360,2013-03-23 16:15:00
11:35 AM,37.9,22.3,53,30.12,10.0,NE,8.1,-,N/A,,Scattered Clouds,40,2013-03-23 16:35:00
11:55 AM,38.5,21.6,51,30.12,10.0,NE,6.9,-,N/A,,Scattered Clouds,50,2013-03-23 16:55:00
12:15 PM,38.8,21.2,49,30.11,10.0,NE,5.8,-,N/A,,Scattered Clouds,50,2013-03-23 17:15:00
12:35 PM,37.8,20.8,51,30.11,10.0,East,6.9,-,N/A,,Clear,90,2013-03-23 17:35:00
12:55 PM,39.4,21.0,48,30.10,10.0,North,4.6,18.4,N/A,,Clear,10,2013-03-23 17:55:00
1:15 PM,38.7,21.6,50,30.10,10.0,NE,8.1,-,N/A,,Clear,40,2013-03-23 18:15:00
1:35 PM,38.5,22.3,52,30.09,10.0,NE,11.5,-,N/A,,Clear,50,2013-03-23 18:35:00
1:55 PM,39.2,22.6,52,30.09,10.0,ENE,11.5,-,N/A,,Clear,70,2013-03-23 18:55:00
2:15 PM,38.8,21.9,51,30.08,10.0,East,11.5,18.4,N/A,,Clear,80,2013-03-23 19:15:00
2:35 PM,38.5,21.9,51,30.09,10.0,NE,6.9,-,N/A,,Clear,40,2013-03-23 19:35:00
2:55 PM,38.8,22.8,53,30.08,10.0,ENE,10.4,18.4,N/A,,Clear,60,2013-03-23 19:55:00
3:15 PM,38.1,22.5,53,30.08,10.0,NE,8.1,17.3,N/A,,Clear,40,2013-03-23 20:15:00
3:35 PM,38.1,22.6,54,30.08,10.0,ENE,12.7,17.3,N/A,,Clear,60,2013-03-23 20:35:00
3:55 PM,37.9,24.1,57,30.08,10.0,NNE,9.2,16.1,N/A,,Clear,30,2013-03-23 20:55:00
4:15 PM,37.4,23.2,57,30.08,10.0,ENE,11.5,-,N/A,,Scattered Clouds,60,2013-03-23 21:15:00
4:35 PM,37.2,21.7,54,30.06,10.0,NE,8.1,-,N/A,,Clear,40,2013-03-23 21:35:00
4:55 PM,36.9,20.5,52,30.06,10.0,NE,11.5,-,N/A,,Clear,40,2013-03-23 21:55:00
5:15 PM,36.5,21.4,54,30.06,10.0,NE,12.7,16.1,N/A,,Clear,40,2013-03-23 22:15:00
5:35 PM,35.6,21.7,57,30.05,10.0,NE,13.8,-,N/A,,Clear,40,2013-03-23 22:35:00
5:55 PM,34.7,21.9,60,30.04,10.0,NNE,13.8,-,N/A,,Clear,30,2013-03-23 22:55:00
6:15 PM,34.5,20.8,57,30.04,10.0,ENE,12.7,16.1,N/A,,Clear,60,2013-03-23 23:15:00
6:35 PM,33.8,21.0,60,30.04,10.0,ENE,11.5,-,N/A,,Clear,60,2013-03-23 23:35:00
6:55 PM,32.7,22.6,66,30.04,10.0,NE,9.2,18.4,N/A,,Clear,50,2013-03-23 23:55:00
7:15 PM,32.0,23.0,69,30.04,10.0,NE,8.1,-,N/A,,Clear,40,2013-03-24 00:15:00
7:35 PM,31.6,23.9,73,30.04,10.0,ENE,9.2,-,N/A,,Clear,60,2013-03-24 00:35:00
7:55 PM,31.1,24.1,75,30.06,10.0,NE,5.8,-,N/A,,Clear,50,2013-03-24 00:55:00
8:15 PM,31.1,24.8,77,30.04,10.0,NE,9.2,-,N/A,,Clear,40,2013-03-24 01:15:00
8:35 PM,30.9,24.8,78,30.03,10.0,NE,9.2,-,N/A,,Clear,40,2013-03-24 01:35:00
8:55 PM,31.1,24.6,77,30.03,10.0,NE,8.1,-,N/A,,Clear,40,2013-03-24 01:55:00
9:15 PM,31.1,25.0,78,30.03,10.0,NE,10.4,-,N/A,,Clear,40,2013-03-24 02:15:00
9:35 PM,31.1,24.8,77,30.03,10.0,NE,8.1,-,N/A,,Clear,40,2013-03-24 02:35:00
9:55 PM,31.1,24.3,76,30.02,10.0,NE,11.5,-,N/A,,Clear,40,2013-03-24 02:55:00
10:15 PM,31.1,24.3,76,30.01,10.0,NE,8.1,-,N/A,,Clear,40,2013-03-24 03:15:00
10:35 PM,31.5,23.9,74,30.01,10.0,NE,6.9,-,N/A,,Clear,40,2013-03-24 03:35:00
10:55 PM,31.6,23.9,73,30.01,10.0,NE,6.9,-,N/A,,Clear,40,2013-03-24 03:55:00
11:15 PM,32.0,23.9,72,30.01,10.0,NE,9.2,-,N/A,,Clear,40,2013-03-24 04:15:00
11:35 PM,32.0,23.4,70,30.01,10.0,NE,8.1,-,N/A,,Clear,50,2013-03-24 04:35:00
11:55 PM,32.0,23.0,69,30.01,10.0,NE,6.9,-,N/A,,Clear,40,2013-03-24 04:55:00